Adams, Nebraska
Current Conditions -  °F | °C
As of 10:55 AM on Monday 22 Dec 2014 (Local Time) from KBIE Reporting Station
Overcast Overcast  
Wind Chill: 36°   Ceiling: 1200
Heat Index: 43°   Visibility: 7mi
Dew Point: 41°   Wind: 13mph
Humidity: 93%   Direction: 310°NW
Pressure: 29.49"   Gusts: NA
Location:  40.46°N, 96.51°W
Report Text: KBIE 221655Z AUTO 31011KT 7SM SCT009 OVC012 06/05 A2949 RMK AO2 T00610050
Loading
Personal Weather Stations






























Interactive Weather Map New forecast layout! Learn more

10-Day Weather Forecast

Advertisements
Track Severe Weather on mobile